sensor_id;sensor_type;location;lat;lon;timestamp;temperature;humidity
4795;DHT22;2411;47.060;15.064;2022-11-09T00:00:50;3.50;99.90
4795;DHT22;2411;47.060;15.064;2022-11-09T00:03:18;3.40;99.90
4795;DHT22;2411;47.060;15.064;2022-11-09T00:05:56;3.30;99.90
4795;DHT22;2411;47.060;15.064;2022-11-09T00:08:24;3.30;99.90
4795;DHT22;2411;47.060;15.064;2022-11-09T00:10:52;3.40;99.90
4795;DHT22;2411;47.060;15.064;2022-11-09T00:13:20;3.40;99.90
4795;DHT22;2411;47.060;15.064;2022-11-09T00:15:48;3.40;99.90
4795;DHT22;2411;47.060;15.064;2022-11-09T00:18:15;3.40;99.90
4795;DHT22;2411;47.060;15.064;2022-11-09T00:20:42;3.50;99.90
4795;DHT22;2411;47.060;15.064;2022-11-09T00:23:14;3.70;99.90
4795;DHT22;2411;47.060;15.064;2022-11-09T00:25:42;3.50;99.90
4795;DHT22;2411;47.060;15.064;2022-11-09T00:28:10;3.40;99.90
4795;DHT22;2411;47.060;15.064;2022-11-09T00:30:38;3.30;99.90
4795;DHT22;2411;47.060;15.064;2022-11-09T00:33:05;3.20;99.90
4795;DHT22;2411;47.060;15.064;2022-11-09T00:35:33;3.20;99.90
4795;DHT22;2411;47.060;15.064;2022-11-09T00:38:00;3.10;99.90
4795;DHT22;2411;47.060;15.064;2022-11-09T00:40:27;3.10;99.90
4795;DHT22;2411;47.060;15.064;2022-11-09T00:42:54;3.10;99.90
4795;DHT22;2411;47.060;15.064;2022-11-09T00:45:22;3.10;99.90
4795;DHT22;2411;47.060;15.064;2022-11-09T00:47:49;3.20;99.90
4795;DHT22;2411;47.060;15.064;2022-11-09T00:50:16;3.20;99.90
4795;DHT22;2411;47.060;15.064;2022-11-09T00:52:43;3.30;99.90
4795;DHT22;2411;47.060;15.064;2022-11-09T00:55:11;3.30;99.90
4795;DHT22;2411;47.060;15.064;2022-11-09T00:57:38;3.30;99.90
4795;DHT22;2411;47.060;15.064;2022-11-09T01:00:05;3.40;99.90
4795;DHT22;2411;47.060;15.064;2022-11-09T01:02:33;3.40;99.90
4795;DHT22;2411;47.060;15.064;2022-11-09T01:05:00;3.40;99.90
4795;DHT22;2411;47.060;15.064;2022-11-09T01:07:27;3.30;99.90
4795;DHT22;2411;47.060;15.064;2022-11-09T01:09:55;3.40;99.90
4795;DHT22;2411;47.060;15.064;2022-11-09T01:12:22;3.30;99.90
4795;DHT22;2411;47.060;15.064;2022-11-09T01:14:49;3.50;99.90
4795;DHT22;2411;47.060;15.064;2022-11-09T01:17:16;3.50;99.90
4795;DHT22;2411;47.060;15.064;2022-11-09T01:19:43;3.40;99.90
4795;DHT22;2411;47.060;15.064;2022-11-09T01:22:11;3.30;99.90
4795;DHT22;2411;47.060;15.064;2022-11-09T01:24:38;3.20;99.90
4795;DHT22;2411;47.060;15.064;2022-11-09T01:27:05;2.90;99.90
4795;DHT22;2411;47.060;15.064;2022-11-09T01:29:33;2.70;99.90
4795;DHT22;2411;47.060;15.064;2022-11-09T01:32:00;2.70;99.90
4795;DHT22;2411;47.060;15.064;2022-11-09T01:34:27;2.80;99.90
4795;DHT22;2411;47.060;15.064;2022-11-09T01:36:55;3.00;99.90
4795;DHT22;2411;47.060;15.064;2022-11-09T01:39:22;3.00;99.90
4795;DHT22;2411;47.060;15.064;2022-11-09T01:41:49;3.00;99.90
4795;DHT22;2411;47.060;15.064;2022-11-09T01:44:18;3.10;99.90
4795;DHT22;2411;47.060;15.064;2022-11-09T01:52:11;3.10;99.90
4795;DHT22;2411;47.060;15.064;2022-11-09T01:54:43;2.90;99.90
4795;DHT22;2411;47.060;15.064;2022-11-09T01:57:18;2.80;99.90
4795;DHT22;2411;47.060;15.064;2022-11-09T01:59:51;2.70;99.90
4795;DHT22;2411;47.060;15.064;2022-11-09T02:02:21;2.70;99.90
4795;DHT22;2411;47.060;15.064;2022-11-09T02:04:52;2.70;99.90
4795;DHT22;2411;47.060;15.064;2022-11-09T02:07:21;2.70;99.90
4795;DHT22;2411;47.060;15.064;2022-11-09T02:09:58;2.70;99.90
4795;DHT22;2411;47.060;15.064;2022-11-09T02:12:28;2.70;99.90
4795;DHT22;2411;47.060;15.064;2022-11-09T02:15:00;2.70;99.90
4795;DHT22;2411;47.060;15.064;2022-11-09T02:17:29;2.70;99.90
4795;DHT22;2411;47.060;15.064;2022-11-09T02:19:56;2.70;99.90
4795;DHT22;2411;47.060;15.064;2022-11-09T02:22:25;2.60;99.90
4795;DHT22;2411;47.060;15.064;2022-11-09T02:24:52;2.60;99.90
4795;DHT22;2411;47.060;15.064;2022-11-09T02:27:23;2.70;99.90
4795;DHT22;2411;47.060;15.064;2022-11-09T02:29:51;2.60;99.90
4795;DHT22;2411;47.060;15.064;2022-11-09T02:32:20;2.50;99.90
4795;DHT22;2411;47.060;15.064;2022-11-09T02:34:48;2.50;99.90
4795;DHT22;2411;47.060;15.064;2022-11-09T02:37:37;2.50;99.90
4795;DHT22;2411;47.060;15.064;2022-11-09T02:40:27;2.40;99.90
4795;DHT22;2411;47.060;15.064;2022-11-09T02:42:55;2.60;99.90
4795;DHT22;2411;47.060;15.064;2022-11-09T02:45:23;2.40;99.90
4795;DHT22;2411;47.060;15.064;2022-11-09T02:47:50;2.30;99.90
4795;DHT22;2411;47.060;15.064;2022-11-09T02:50:18;2.40;99.90
4795;DHT22;2411;47.060;15.064;2022-11-09T02:52:45;2.50;99.90
4795;DHT22;2411;47.060;15.064;2022-11-09T02:55:13;2.50;99.90
4795;DHT22;2411;47.060;15.064;2022-11-09T02:57:40;2.60;99.90
4795;DHT22;2411;47.060;15.064;2022-11-09T03:00:08;2.60;99.90
4795;DHT22;2411;47.060;15.064;2022-11-09T03:02:36;2.60;99.90
4795;DHT22;2411;47.060;15.064;2022-11-09T03:05:04;2.60;99.90
4795;DHT22;2411;47.060;15.064;2022-11-09T03:07:31;2.60;99.90
4795;DHT22;2411;47.060;15.064;2022-11-09T03:09:58;2.60;99.90
4795;DHT22;2411;47.060;15.064;2022-11-09T03:12:25;2.60;99.90
4795;DHT22;2411;47.060;15.064;2022-11-09T03:15:00;2.60;99.90
4795;DHT22;2411;47.060;15.064;2022-11-09T03:17:30;2.60;99.90
4795;DHT22;2411;47.060;15.064;2022-11-09T03:19:58;2.50;99.90
4795;DHT22;2411;47.060;15.064;2022-11-09T03:22:25;2.40;99.90
4795;DHT22;2411;47.060;15.064;2022-11-09T03:24:52;2.40;99.90
4795;DHT22;2411;47.060;15.064;2022-11-09T03:27:20;2.60;99.90
4795;DHT22;2411;47.060;15.064;2022-11-09T03:29:47;2.40;99.90
4795;DHT22;2411;47.060;15.064;2022-11-09T03:32:14;2.30;99.90
4795;DHT22;2411;47.060;15.064;2022-11-09T03:34:41;2.30;99.90
4795;DHT22;2411;47.060;15.064;2022-11-09T03:37:09;2.30;99.90
4795;DHT22;2411;47.060;15.064;2022-11-09T03:39:36;2.30;99.90
4795;DHT22;2411;47.060;15.064;2022-11-09T03:42:03;2.20;99.90
4795;DHT22;2411;47.060;15.064;2022-11-09T03:44:30;2.20;99.90
4795;DHT22;2411;47.060;15.064;2022-11-09T03:46:58;2.20;99.90
4795;DHT22;2411;47.060;15.064;2022-11-09T03:49:25;2.10;99.90
4795;DHT22;2411;47.060;15.064;2022-11-09T03:51:52;2.10;99.90
4795;DHT22;2411;47.060;15.064;2022-11-09T03:54:19;2.10;99.90
4795;DHT22;2411;47.060;15.064;2022-11-09T03:56:47;2.00;99.90
4795;DHT22;2411;47.060;15.064;2022-11-09T03:59:14;1.90;99.90
4795;DHT22;2411;47.060;15.064;2022-11-09T04:01:41;1.90;99.90
4795;DHT22;2411;47.060;15.064;2022-11-09T04:04:09;2.00;99.90
4795;DHT22;2411;47.060;15.064;2022-11-09T04:06:36;2.00;99.90
4795;DHT22;2411;47.060;15.064;2022-11-09T04:09:04;2.10;99.90
4795;DHT22;2411;47.060;15.064;2022-11-09T04:11:31;2.30;99.90
4795;DHT22;2411;47.060;15.064;2022-11-09T04:13:58;2.40;99.90
4795;DHT22;2411;47.060;15.064;2022-11-09T04:16:26;2.30;99.90
4795;DHT22;2411;47.060;15.064;2022-11-09T04:18:53;2.30;99.90
4795;DHT22;2411;47.060;15.064;2022-11-09T04:21:20;2.40;99.90
4795;DHT22;2411;47.060;15.064;2022-11-09T04:23:50;2.50;99.90
4795;DHT22;2411;47.060;15.064;2022-11-09T04:26:17;2.40;99.90
4795;DHT22;2411;47.060;15.064;2022-11-09T04:28:44;2.70;99.90
4795;DHT22;2411;47.060;15.064;2022-11-09T04:31:11;2.40;99.90
4795;DHT22;2411;47.060;15.064;2022-11-09T04:33:39;2.40;99.90
4795;DHT22;2411;47.060;15.064;2022-11-09T04:36:06;2.30;99.90
4795;DHT22;2411;47.060;15.064;2022-11-09T04:38:34;2.10;99.90
4795;DHT22;2411;47.060;15.064;2022-11-09T04:41:03;2.10;99.90
4795;DHT22;2411;47.060;15.064;2022-11-09T04:43:30;2.00;99.90
4795;DHT22;2411;47.060;15.064;2022-11-09T04:45:59;1.90;99.90
4795;DHT22;2411;47.060;15.064;2022-11-09T04:48:27;1.80;99.90
4795;DHT22;2411;47.060;15.064;2022-11-09T04:50:59;1.80;99.90
4795;DHT22;2411;47.060;15.064;2022-11-09T04:53:27;1.80;99.90
4795;DHT22;2411;47.060;15.064;2022-11-09T04:55:55;1.60;99.90
4795;DHT22;2411;47.060;15.064;2022-11-09T04:58:23;1.60;99.90
4795;DHT22;2411;47.060;15.064;2022-11-09T05:00:53;1.60;99.90
4795;DHT22;2411;47.060;15.064;2022-11-09T05:03:20;1.70;99.90
4795;DHT22;2411;47.060;15.064;2022-11-09T05:05:48;1.80;99.90
4795;DHT22;2411;47.060;15.064;2022-11-09T05:08:15;1.80;99.90
4795;DHT22;2411;47.060;15.064;2022-11-09T05:10:42;1.80;99.90
4795;DHT22;2411;47.060;15.064;2022-11-09T05:13:12;1.80;99.90
4795;DHT22;2411;47.060;15.064;2022-11-09T05:15:40;1.90;99.90
4795;DHT22;2411;47.060;15.064;2022-11-09T05:18:07;2.00;99.90
4795;DHT22;2411;47.060;15.064;2022-11-09T05:20:35;1.90;99.90
4795;DHT22;2411;47.060;15.064;2022-11-09T05:23:03;2.00;99.90
4795;DHT22;2411;47.060;15.064;2022-11-09T05:25:49;1.80;99.90
4795;DHT22;2411;47.060;15.064;2022-11-09T05:28:16;1.90;99.90
4795;DHT22;2411;47.060;15.064;2022-11-09T05:30:43;2.30;99.90
4795;DHT22;2411;47.060;15.064;2022-11-09T05:33:10;2.40;99.90
4795;DHT22;2411;47.060;15.064;2022-11-09T05:35:38;2.20;99.90
4795;DHT22;2411;47.060;15.064;2022-11-09T05:38:05;2.10;99.90
4795;DHT22;2411;47.060;15.064;2022-11-09T05:40:32;1.90;99.90
4795;DHT22;2411;47.060;15.064;2022-11-09T05:43:00;2.00;99.90
4795;DHT22;2411;47.060;15.064;2022-11-09T05:45:27;1.90;99.90
4795;DHT22;2411;47.060;15.064;2022-11-09T05:48:13;1.90;99.90
4795;DHT22;2411;47.060;15.064;2022-11-09T05:50:41;1.80;99.90
4795;DHT22;2411;47.060;15.064;2022-11-09T05:53:10;1.70;99.90
4795;DHT22;2411;47.060;15.064;2022-11-09T05:55:38;1.60;99.90
4795;DHT22;2411;47.060;15.064;2022-11-09T05:58:06;1.40;99.90
4795;DHT22;2411;47.060;15.064;2022-11-09T06:00:33;1.40;99.90
4795;DHT22;2411;47.060;15.064;2022-11-09T06:03:05;1.30;99.90
4795;DHT22;2411;47.060;15.064;2022-11-09T06:05:34;1.30;99.90
4795;DHT22;2411;47.060;15.064;2022-11-09T06:08:06;1.30;99.90
4795;DHT22;2411;47.060;15.064;2022-11-09T06:10:34;1.30;99.90
4795;DHT22;2411;47.060;15.064;2022-11-09T06:13:02;1.30;99.90
4795;DHT22;2411;47.060;15.064;2022-11-09T06:15:30;1.10;99.90
4795;DHT22;2411;47.060;15.064;2022-11-09T06:17:58;1.20;99.90
4795;DHT22;2411;47.060;15.064;2022-11-09T06:20:26;1.30;99.90
4795;DHT22;2411;47.060;15.064;2022-11-09T06:22:54;1.40;99.90
4795;DHT22;2411;47.060;15.064;2022-11-09T06:25:30;1.40;99.90
4795;DHT22;2411;47.060;15.064;2022-11-09T06:27:58;1.40;99.90
4795;DHT22;2411;47.060;15.064;2022-11-09T06:30:25;1.50;99.90
4795;DHT22;2411;47.060;15.064;2022-11-09T06:33:02;1.60;99.90
4795;DHT22;2411;47.060;15.064;2022-11-09T06:35:29;1.70;99.90
4795;DHT22;2411;47.060;15.064;2022-11-09T06:38:00;1.80;99.90
4795;DHT22;2411;47.060;15.064;2022-11-09T06:40:27;1.80;99.90
4795;DHT22;2411;47.060;15.064;2022-11-09T06:42:59;1.80;99.90
4795;DHT22;2411;47.060;15.064;2022-11-09T06:45:28;1.80;99.90
4795;DHT22;2411;47.060;15.064;2022-11-09T06:47:59;1.80;99.90
4795;DHT22;2411;47.060;15.064;2022-11-09T06:50:28;1.80;99.90
4795;DHT22;2411;47.060;15.064;2022-11-09T06:52:57;1.90;99.90
4795;DHT22;2411;47.060;15.064;2022-11-09T06:55:26;1.90;99.90
4795;DHT22;2411;47.060;15.064;2022-11-09T06:57:54;1.90;99.90
4795;DHT22;2411;47.060;15.064;2022-11-09T07:00:22;2.00;99.90
4795;DHT22;2411;47.060;15.064;2022-11-09T07:02:50;2.00;99.90
4795;DHT22;2411;47.060;15.064;2022-11-09T07:05:17;2.00;99.90
4795;DHT22;2411;47.060;15.064;2022-11-09T07:07:44;2.00;99.90
4795;DHT22;2411;47.060;15.064;2022-11-09T07:10:12;2.10;99.90
4795;DHT22;2411;47.060;15.064;2022-11-09T07:12:39;2.20;99.90
4795;DHT22;2411;47.060;15.064;2022-11-09T07:15:06;2.30;99.90
4795;DHT22;2411;47.060;15.064;2022-11-09T07:17:34;2.40;99.90
4795;DHT22;2411;47.060;15.064;2022-11-09T07:20:03;2.30;99.90
4795;DHT22;2411;47.060;15.064;2022-11-09T07:22:31;2.40;99.90
4795;DHT22;2411;47.060;15.064;2022-11-09T07:25:00;2.50;99.90
4795;DHT22;2411;47.060;15.064;2022-11-09T07:27:27;2.60;99.90
4795;DHT22;2411;47.060;15.064;2022-11-09T07:29:55;2.70;1.00
4795;DHT22;2411;47.060;15.064;2022-11-09T07:32:22;2.80;1.00
4795;DHT22;2411;47.060;15.064;2022-11-09T07:35:09;3.00;1.00
4795;DHT22;2411;47.060;15.064;2022-11-09T07:37:36;3.20;1.00
4795;DHT22;2411;47.060;15.064;2022-11-09T07:40:04;3.30;1.00
4795;DHT22;2411;47.060;15.064;2022-11-09T07:42:31;3.40;1.00
4795;DHT22;2411;47.060;15.064;2022-11-09T07:44:59;3.50;1.00
4795;DHT22;2411;47.060;15.064;2022-11-09T07:47:26;3.60;1.00
4795;DHT22;2411;47.060;15.064;2022-11-09T07:49:53;3.70;1.00
4795;DHT22;2411;47.060;15.064;2022-11-09T07:52:20;3.90;1.00
4795;DHT22;2411;47.060;15.064;2022-11-09T07:54:47;4.00;1.00
4795;DHT22;2411;47.060;15.064;2022-11-09T07:57:18;4.10;1.00
4795;DHT22;2411;47.060;15.064;2022-11-09T07:59:45;4.20;1.00
4795;DHT22;2411;47.060;15.064;2022-11-09T08:02:12;4.30;1.00
4795;DHT22;2411;47.060;15.064;2022-11-09T08:04:40;4.40;99.90
4795;DHT22;2411;47.060;15.064;2022-11-09T08:07:07;4.50;99.90
4795;DHT22;2411;47.060;15.064;2022-11-09T08:09:35;4.60;99.90
4795;DHT22;2411;47.060;15.064;2022-11-09T08:12:02;4.80;99.90
4795;DHT22;2411;47.060;15.064;2022-11-09T08:14:29;4.90;99.90
4795;DHT22;2411;47.060;15.064;2022-11-09T08:16:56;5.00;99.90
4795;DHT22;2411;47.060;15.064;2022-11-09T08:19:23;5.10;99.90
4795;DHT22;2411;47.060;15.064;2022-11-09T08:21:50;5.20;99.90
4795;DHT22;2411;47.060;15.064;2022-11-09T08:24:23;5.20;99.90
4795;DHT22;2411;47.060;15.064;2022-11-09T08:26:50;5.30;99.90
4795;DHT22;2411;47.060;15.064;2022-11-09T08:29:17;5.50;99.90
4795;DHT22;2411;47.060;15.064;2022-11-09T08:31:44;5.50;99.90
4795;DHT22;2411;47.060;15.064;2022-11-09T08:34:12;5.60;99.90
4795;DHT22;2411;47.060;15.064;2022-11-09T08:36:42;5.70;99.90
4795;DHT22;2411;47.060;15.064;2022-11-09T08:39:10;5.80;99.90
4795;DHT22;2411;47.060;15.064;2022-11-09T08:41:37;6.00;99.90
4795;DHT22;2411;47.060;15.064;2022-11-09T08:44:04;6.10;99.90
4795;DHT22;2411;47.060;15.064;2022-11-09T08:46:31;6.20;99.90
4795;DHT22;2411;47.060;15.064;2022-11-09T08:49:05;6.20;99.90
4795;DHT22;2411;47.060;15.064;2022-11-09T08:51:32;6.30;99.90
4795;DHT22;2411;47.060;15.064;2022-11-09T08:54:00;6.40;99.90
4795;DHT22;2411;47.060;15.064;2022-11-09T08:56:27;6.50;99.90
4795;DHT22;2411;47.060;15.064;2022-11-09T08:58:54;6.60;97.00
4795;DHT22;2411;47.060;15.064;2022-11-09T09:01:21;6.70;96.80
4795;DHT22;2411;47.060;15.064;2022-11-09T09:03:49;6.80;91.60
4795;DHT22;2411;47.060;15.064;2022-11-09T09:06:16;6.90;66.10
4795;DHT22;2411;47.060;15.064;2022-11-09T09:08:43;6.90;72.60
4795;DHT22;2411;47.060;15.064;2022-11-09T09:11:10;7.00;62.60
4795;DHT22;2411;47.060;15.064;2022-11-09T09:13:37;7.10;55.50
4795;DHT22;2411;47.060;15.064;2022-11-09T09:16:11;7.20;44.60
4795;DHT22;2411;47.060;15.064;2022-11-09T09:18:39;7.30;45.20
4795;DHT22;2411;47.060;15.064;2022-11-09T09:21:07;7.30;43.70
4795;DHT22;2411;47.060;15.064;2022-11-09T09:23:35;7.40;48.10
4795;DHT22;2411;47.060;15.064;2022-11-09T09:26:03;7.40;47.60
4795;DHT22;2411;47.060;15.064;2022-11-09T09:28:30;7.50;41.10
4795;DHT22;2411;47.060;15.064;2022-11-09T09:30:59;7.60;43.80
4795;DHT22;2411;47.060;15.064;2022-11-09T09:33:27;7.60;35.00
4795;DHT22;2411;47.060;15.064;2022-11-09T09:35:55;7.60;46.00
4795;DHT22;2411;47.060;15.064;2022-11-09T09:38:27;7.70;41.00
4795;DHT22;2411;47.060;15.064;2022-11-09T09:41:02;7.70;35.00
4795;DHT22;2411;47.060;15.064;2022-11-09T09:43:34;7.80;34.10
4795;DHT22;2411;47.060;15.064;2022-11-09T09:46:25;7.90;29.60
4795;DHT22;2411;47.060;15.064;2022-11-09T09:49:11;7.90;28.40
4795;DHT22;2411;47.060;15.064;2022-11-09T09:51:55;8.10;29.80
4795;DHT22;2411;47.060;15.064;2022-11-09T09:54:26;8.20;26.40
4795;DHT22;2411;47.060;15.064;2022-11-09T09:56:58;8.30;25.30
4795;DHT22;2411;47.060;15.064;2022-11-09T10:01:59;8.40;20.80
4795;DHT22;2411;47.060;15.064;2022-11-09T10:04:39;8.50;20.90
4795;DHT22;2411;47.060;15.064;2022-11-09T10:12:27;8.80;21.40
4795;DHT22;2411;47.060;15.064;2022-11-09T10:29:23;9.30;13.10
4795;DHT22;2411;47.060;15.064;2022-11-09T10:32:08;9.30;12.20
4795;DHT22;2411;47.060;15.064;2022-11-09T10:37:20;9.30;9.50
4795;DHT22;2411;47.060;15.064;2022-11-09T10:42:36;9.40;7.90
4795;DHT22;2411;47.060;15.064;2022-11-09T10:45:27;9.50;8.30
4795;DHT22;2411;47.060;15.064;2022-11-09T10:47:55;9.60;7.30
4795;DHT22;2411;47.060;15.064;2022-11-09T10:50:32;9.70;7.90
4795;DHT22;2411;47.060;15.064;2022-11-09T10:58:51;9.90;8.60
4795;DHT22;2411;47.060;15.064;2022-11-09T11:01:24;10.10;7.50
4795;DHT22;2411;47.060;15.064;2022-11-09T11:03:53;10.20;7.20
4795;DHT22;2411;47.060;15.064;2022-11-09T11:08:49;10.30;6.90
4795;DHT22;2411;47.060;15.064;2022-11-09T11:11:20;10.40;6.60
4795;DHT22;2411;47.060;15.064;2022-11-09T11:16:37;10.50;6.70
4795;DHT22;2411;47.060;15.064;2022-11-09T11:19:34;10.60;6.60
4795;DHT22;2411;47.060;15.064;2022-11-09T11:30:10;10.80;20.50
4795;DHT22;2411;47.060;15.064;2022-11-09T11:32:39;10.90;6.00
4795;DHT22;2411;47.060;15.064;2022-11-09T11:35:14;11.10;7.40
4795;DHT22;2411;47.060;15.064;2022-11-09T11:40:39;11.10;5.50
4795;DHT22;2411;47.060;15.064;2022-11-09T11:57:40;11.60;6.70
4795;DHT22;2411;47.060;15.064;2022-11-09T12:00:17;11.70;20.60
4795;DHT22;2411;47.060;15.064;2022-11-09T12:16:40;11.90;5.30
4795;DHT22;2411;47.060;15.064;2022-11-09T12:30:15;12.10;5.90
4795;DHT22;2411;47.060;15.064;2022-11-09T12:38:04;12.10;4.80
4795;DHT22;2411;47.060;15.064;2022-11-09T12:40:53;12.10;4.40
4795;DHT22;2411;47.060;15.064;2022-11-09T12:44:01;12.20;3.80
4795;DHT22;2411;47.060;15.064;2022-11-09T12:46:34;12.20;3.50
4795;DHT22;2411;47.060;15.064;2022-11-09T12:49:03;12.30;5.40
4795;DHT22;2411;47.060;15.064;2022-11-09T12:51:32;12.40;5.00
4795;DHT22;2411;47.060;15.064;2022-11-09T12:54:04;12.30;3.90
4795;DHT22;2411;47.060;15.064;2022-11-09T12:56:45;12.30;3.70
4795;DHT22;2411;47.060;15.064;2022-11-09T12:59:54;12.30;3.30
4795;DHT22;2411;47.060;15.064;2022-11-09T13:05:03;12.40;18.10
4795;DHT22;2411;47.060;15.064;2022-11-09T13:07:48;12.40;3.30
4795;DHT22;2411;47.060;15.064;2022-11-09T13:10:26;12.40;2.90
4795;DHT22;2411;47.060;15.064;2022-11-09T13:13:20;12.30;3.00
4795;DHT22;2411;47.060;15.064;2022-11-09T13:16:31;12.20;2.00
4795;DHT22;2411;47.060;15.064;2022-11-09T13:18:59;12.20;1.20
4795;DHT22;2411;47.060;15.064;2022-11-09T13:23:53;12.00;1.40
4795;DHT22;2411;47.060;15.064;2022-11-09T13:45:54;12.00;1.00
4795;DHT22;2411;47.060;15.064;2022-11-09T13:51:05;11.90;1.00
4795;DHT22;2411;47.060;15.064;2022-11-09T13:59:14;11.90;1.00
4795;DHT22;2411;47.060;15.064;2022-11-09T14:01:54;11.90;1.00
4795;DHT22;2411;47.060;15.064;2022-11-09T14:04:36;11.90;1.00
4795;DHT22;2411;47.060;15.064;2022-11-09T14:07:08;11.90;1.00
4795;DHT22;2411;47.060;15.064;2022-11-09T14:18:52;11.70;1.00
4795;DHT22;2411;47.060;15.064;2022-11-09T14:24:24;11.50;1.00
4795;DHT22;2411;47.060;15.064;2022-11-09T14:26:59;11.50;1.00
4795;DHT22;2411;47.060;15.064;2022-11-09T14:29:28;11.40;1.00
4795;DHT22;2411;47.060;15.064;2022-11-09T14:32:22;11.30;1.00
4795;DHT22;2411;47.060;15.064;2022-11-09T14:34:47;11.30;1.00
4795;DHT22;2411;47.060;15.064;2022-11-09T14:37:14;11.30;1.00
4795;DHT22;2411;47.060;15.064;2022-11-09T14:39:47;11.30;1.00
4795;DHT22;2411;47.060;15.064;2022-11-09T14:42:20;11.20;1.00
4795;DHT22;2411;47.060;15.064;2022-11-09T14:44:49;11.20;1.00
4795;DHT22;2411;47.060;15.064;2022-11-09T14:47:23;11.10;1.00
4795;DHT22;2411;47.060;15.064;2022-11-09T14:49:52;11.10;1.00
4795;DHT22;2411;47.060;15.064;2022-11-09T14:52:22;11.00;1.00
4795;DHT22;2411;47.060;15.064;2022-11-09T14:54:53;10.90;1.00
4795;DHT22;2411;47.060;15.064;2022-11-09T14:57:21;10.80;1.00
4795;DHT22;2411;47.060;15.064;2022-11-09T14:59:49;10.60;1.00
4795;DHT22;2411;47.060;15.064;2022-11-09T15:02:19;10.40;1.00
4795;DHT22;2411;47.060;15.064;2022-11-09T15:05:29;10.30;1.00
4795;DHT22;2411;47.060;15.064;2022-11-09T15:07:57;10.10;1.00
4795;DHT22;2411;47.060;15.064;2022-11-09T15:10:26;9.90;1.00
4795;DHT22;2411;47.060;15.064;2022-11-09T15:12:59;9.90;1.00
4795;DHT22;2411;47.060;15.064;2022-11-09T15:15:28;9.80;1.00
4795;DHT22;2411;47.060;15.064;2022-11-09T15:17:56;9.70;1.00
4795;DHT22;2411;47.060;15.064;2022-11-09T15:20:27;9.60;1.00
4795;DHT22;2411;47.060;15.064;2022-11-09T15:23:04;9.50;1.00
4795;DHT22;2411;47.060;15.064;2022-11-09T15:30:42;9.30;10.30
4795;DHT22;2411;47.060;15.064;2022-11-09T15:38:28;8.90;1.00
4795;DHT22;2411;47.060;15.064;2022-11-09T15:40:56;8.70;1.00
4795;DHT22;2411;47.060;15.064;2022-11-09T15:43:23;8.60;1.00
4795;DHT22;2411;47.060;15.064;2022-11-09T15:45:51;8.60;1.00
4795;DHT22;2411;47.060;15.064;2022-11-09T15:48:18;8.70;1.00
4795;DHT22;2411;47.060;15.064;2022-11-09T15:50:46;8.60;1.00
4795;DHT22;2411;47.060;15.064;2022-11-09T15:53:13;8.50;1.00
4795;DHT22;2411;47.060;15.064;2022-11-09T15:55:40;8.40;1.00
4795;DHT22;2411;47.060;15.064;2022-11-09T15:58:12;8.30;1.20
4795;DHT22;2411;47.060;15.064;2022-11-09T16:00:40;8.30;1.00
4795;DHT22;2411;47.060;15.064;2022-11-09T16:03:08;8.20;1.00
4795;DHT22;2411;47.060;15.064;2022-11-09T16:05:36;8.10;1.00
4795;DHT22;2411;47.060;15.064;2022-11-09T16:08:03;7.90;1.30
4795;DHT22;2411;47.060;15.064;2022-11-09T16:10:33;7.80;3.30
4795;DHT22;2411;47.060;15.064;2022-11-09T16:13:07;7.70;5.30
4795;DHT22;2411;47.060;15.064;2022-11-09T16:15:35;7.60;6.20
4795;DHT22;2411;47.060;15.064;2022-11-09T16:18:04;7.70;5.70
4795;DHT22;2411;47.060;15.064;2022-11-09T16:20:31;7.60;8.60
4795;DHT22;2411;47.060;15.064;2022-11-09T16:22:59;7.60;9.10
4795;DHT22;2411;47.060;15.064;2022-11-09T16:25:26;7.70;7.00
4795;DHT22;2411;47.060;15.064;2022-11-09T16:27:53;7.70;6.70
4795;DHT22;2411;47.060;15.064;2022-11-09T16:30:21;7.70;5.70
4795;DHT22;2411;47.060;15.064;2022-11-09T16:32:48;7.60;7.60
4795;DHT22;2411;47.060;15.064;2022-11-09T16:35:15;7.50;7.80
4795;DHT22;2411;47.060;15.064;2022-11-09T16:37:54;7.40;6.40
4795;DHT22;2411;47.060;15.064;2022-11-09T16:40:22;7.30;5.20
4795;DHT22;2411;47.060;15.064;2022-11-09T16:42:50;7.30;6.00
4795;DHT22;2411;47.060;15.064;2022-11-09T16:45:17;7.30;6.60
4795;DHT22;2411;47.060;15.064;2022-11-09T16:47:48;7.30;6.60
4795;DHT22;2411;47.060;15.064;2022-11-09T16:50:17;7.20;7.00
4795;DHT22;2411;47.060;15.064;2022-11-09T16:52:44;7.10;3.50
4795;DHT22;2411;47.060;15.064;2022-11-09T16:55:11;6.90;6.90
4795;DHT22;2411;47.060;15.064;2022-11-09T16:57:38;6.80;11.10
4795;DHT22;2411;47.060;15.064;2022-11-09T17:00:06;6.80;11.70
4795;DHT22;2411;47.060;15.064;2022-11-09T17:02:34;6.80;11.60
4795;DHT22;2411;47.060;15.064;2022-11-09T17:05:01;6.80;13.40
4795;DHT22;2411;47.060;15.064;2022-11-09T17:07:28;6.80;16.50
4795;DHT22;2411;47.060;15.064;2022-11-09T17:09:56;6.80;15.30
4795;DHT22;2411;47.060;15.064;2022-11-09T17:12:23;6.60;11.30
4795;DHT22;2411;47.060;15.064;2022-11-09T17:14:50;6.50;12.90
4795;DHT22;2411;47.060;15.064;2022-11-09T17:17:17;6.50;15.90
4795;DHT22;2411;47.060;15.064;2022-11-09T17:19:48;6.30;14.50
4795;DHT22;2411;47.060;15.064;2022-11-09T17:22:16;6.30;19.20
4795;DHT22;2411;47.060;15.064;2022-11-09T17:24:43;6.30;20.80
4795;DHT22;2411;47.060;15.064;2022-11-09T17:27:11;6.40;23.10
4795;DHT22;2411;47.060;15.064;2022-11-09T17:29:39;6.30;18.60
4795;DHT22;2411;47.060;15.064;2022-11-09T17:32:07;6.20;19.70
4795;DHT22;2411;47.060;15.064;2022-11-09T17:34:34;6.10;21.10
4795;DHT22;2411;47.060;15.064;2022-11-09T17:37:02;6.00;19.30
4795;DHT22;2411;47.060;15.064;2022-11-09T17:39:31;5.90;19.00
4795;DHT22;2411;47.060;15.064;2022-11-09T17:41:59;5.90;17.50
4795;DHT22;2411;47.060;15.064;2022-11-09T17:44:26;6.10;27.40
4795;DHT22;2411;47.060;15.064;2022-11-09T17:46:53;6.20;42.00
4795;DHT22;2411;47.060;15.064;2022-11-09T17:49:20;6.10;23.50
4795;DHT22;2411;47.060;15.064;2022-11-09T17:51:48;6.00;20.60
4795;DHT22;2411;47.060;15.064;2022-11-09T17:54:15;5.90;22.70
4795;DHT22;2411;47.060;15.064;2022-11-09T17:56:42;5.90;23.50
4795;DHT22;2411;47.060;15.064;2022-11-09T17:59:10;5.90;24.90
4795;DHT22;2411;47.060;15.064;2022-11-09T18:01:39;5.80;25.60
4795;DHT22;2411;47.060;15.064;2022-11-09T18:04:09;5.70;25.20
4795;DHT22;2411;47.060;15.064;2022-11-09T18:06:37;5.60;25.40
4795;DHT22;2411;47.060;15.064;2022-11-09T18:09:05;5.50;27.80
4795;DHT22;2411;47.060;15.064;2022-11-09T18:11:52;5.40;30.70
4795;DHT22;2411;47.060;15.064;2022-11-09T18:14:20;5.40;40.50
4795;DHT22;2411;47.060;15.064;2022-11-09T18:16:47;5.40;48.90
4795;DHT22;2411;47.060;15.064;2022-11-09T18:19:14;5.40;56.60
4795;DHT22;2411;47.060;15.064;2022-11-09T18:21:43;5.40;72.00
4795;DHT22;2411;47.060;15.064;2022-11-09T18:24:12;5.40;76.10
4795;DHT22;2411;47.060;15.064;2022-11-09T18:26:39;5.30;77.30
4795;DHT22;2411;47.060;15.064;2022-11-09T18:29:07;5.40;87.80
4795;DHT22;2411;47.060;15.064;2022-11-09T18:31:34;5.50;95.80
4795;DHT22;2411;47.060;15.064;2022-11-09T18:34:01;5.50;93.70
4795;DHT22;2411;47.060;15.064;2022-11-09T18:36:28;5.50;78.20
4795;DHT22;2411;47.060;15.064;2022-11-09T18:38:56;5.50;81.90
4795;DHT22;2411;47.060;15.064;2022-11-09T18:41:25;5.40;76.80
4795;DHT22;2411;47.060;15.064;2022-11-09T18:43:52;5.50;83.30
4795;DHT22;2411;47.060;15.064;2022-11-09T18:46:20;5.50;75.80
4795;DHT22;2411;47.060;15.064;2022-11-09T18:48:51;5.50;70.40
4795;DHT22;2411;47.060;15.064;2022-11-09T18:51:19;5.60;72.10
4795;DHT22;2411;47.060;15.064;2022-11-09T18:53:47;5.50;69.00
4795;DHT22;2411;47.060;15.064;2022-11-09T18:56:23;5.50;62.60